Rebecq-Rognon, Belgium
Current Conditions -  °F | °C
As of 1:25 AM on Monday 24 Nov 2014 (Local Time) from EBCV Reporting Station
Broken Clouds Broken Clouds  
Wind Chill: 45°   Ceiling: 3900
Heat Index: 48°   Visibility: 6mi
Dew Point: 48°   Wind: 7mph
Humidity: 100%   Direction: 340°NNW
Pressure: 30.09"   Gusts: NA
Location:  50.65°N, 4.11°E
Report Text: EBCV 240025Z AUTO 34006KT 9999 FEW008/// BKN039/// BKN046/// 09/09 Q1019 BLU
Loading
Personal Weather Stations






























Interactive Weather Map New forecast layout! Learn more

10-Day Weather Forecast

Advertisements
Track Severe Weather on mobile